Indian Creek, Florida
Current Conditions -  °F | °C
As of 5:53 AM on Sunday 23 Nov 2014 (Local Time) from KOPF Reporting Station
Scattered Clouds Scattered Clouds  
Wind Chill: 24°   Ceiling: Unl
Heat Index: 24°   Visibility: 10mi
Dew Point: 22°   Wind: 10mph
Humidity: 87%   Direction: 130°SE
Pressure: 30.02"   Gusts: NA
Location:  25.882°N, 80.1292°W
Report Text: KOPF 231053Z AUTO 13009KT 10SM SCT030 24/22 A3002 RMK AO2 SLP167 T02440222
Loading
Personal Weather Stations






























Interactive Weather Map New forecast layout! Learn more

10-Day Weather Forecast

Advertisements
Track Severe Weather on mobile